FW2463 Le Neubourg FR current weather conditions

sailwx.info

Wind from 290 at 11 knots gusting 19

Air temperature 8.9° C
Dewpoint 3.5° C

Last reported at 2020-Feb-26 13:04 UTC.
Time now 2020-Feb-26 13:46 UTC

Location: N 49°09' E 000°55'.
View on Google Maps.

See reports from other nearby stations

  
Tides and Currents Weather Stations Pressure Air Temp Water Temp Dewpoint Dewpoint Depression Visibility Wind Speed Wind Dir Waves Ship Positions
date/time (UTC)wind fromknots sea level pressurealtimeterstation pressurevisibilityair tempwater tempwave heightnotes
2020-Feb-26 13:04 290 11 gusting 19 8.9
2020-Feb-26 12:55 279 9 gusting 16 8.3
2020-Feb-26 12:46 282 9 gusting 13 7.2
2020-Feb-26 12:37 297 9 gusting 13 6.1
2020-Feb-26 12:28 276 11 gusting 19 5.6
2020-Feb-26 12:19 257 12 gusting 19 6.1
2020-Feb-26 12:10 287 10 gusting 16 6.7
2020-Feb-26 12:01 307 10 gusting 15 7.2
2020-Feb-26 11:52 305 10 gusting 15 6.1
2020-Feb-26 11:43 305 6 gusting 13 6.1
2020-Feb-26 11:34 294 3 gusting 6 6.1
2020-Feb-26 11:25 294 5 gusting 10 5.6
2020-Feb-26 11:16 267 8 gusting 17 5.0
2020-Feb-26 11:07 246 8 gusting 16 6.1
2020-Feb-26 10:58 257 9 gusting 17 6.1
2020-Feb-26 10:49 259 9 gusting 13 6.7
2020-Feb-26 10:40 263 8 gusting 14 6.7
2020-Feb-26 10:31 270 7 gusting 11 6.7
2020-Feb-26 10:22 274 9 gusting 16 6.7
2020-Feb-26 10:13 261 7 gusting 13 6.1
2020-Feb-26 10:04 268 6 gusting 9 6.7
2020-Feb-26 09:55 252 6 gusting 11 6.1
2020-Feb-26 09:46 264 5 gusting 8 5.6
2020-Feb-26 09:37 259 8 gusting 16 4.4
2020-Feb-26 09:28 243 9 gusting 19 4.4
2020-Feb-26 09:19 244 6 gusting 13 6.1
2020-Feb-26 09:10 252 6 gusting 9 4.4
2020-Feb-26 09:01 251 5 gusting 7 3.3
2020-Feb-26 08:52 265 6 gusting 9 2.8
2020-Feb-26 08:43 263 7 gusting 14 2.2
2020-Feb-26 08:34 258 6 gusting 13 2.8
2020-Feb-26 08:25 243 6 gusting 9 3.3
2020-Feb-26 08:16 257 5 gusting 7 3.3
2020-Feb-26 08:07 260 4 gusting 6 3.9
2020-Feb-26 07:58 260 3 gusting 5 3.9
2020-Feb-26 07:49 253 5 gusting 8 2.8
2020-Feb-26 07:40 259 6 gusting 9 2.2
2020-Feb-26 07:31 246 6 gusting 9 1.7
2020-Feb-26 07:22 264 5 gusting 9 1.7
2020-Feb-26 07:13 274 4 gusting 8 1.1
2020-Feb-26 07:04 269 4 gusting 6 0.6
2020-Feb-26 06:55 269 5 gusting 10 0.6
2020-Feb-26 06:46 270 6 gusting 9 0.6
2020-Feb-26 06:37 275 5 gusting 9 0.6
2020-Feb-26 06:28 265 6 gusting 11 0.6
2020-Feb-26 06:19 279 6 gusting 9 0.6
2020-Feb-26 06:10 297 6 gusting 9 0.6
2020-Feb-26 06:01 272 6 gusting 13 1.1
2020-Feb-26 05:52 270 6 gusting 13 1.1
2020-Feb-26 05:43 267 7 gusting 13 1.1
2020-Feb-26 05:34 262 10 gusting 16 1.1
2020-Feb-26 05:25 268 13 gusting 21 1.1
2020-Feb-26 05:16 267 12 gusting 21 1.7
2020-Feb-26 05:07 253 12 gusting 21 1.7
2020-Feb-26 04:58 251 13 gusting 23 1.7
2020-Feb-26 04:49 248 11 gusting 20 1.7
2020-Feb-26 04:40 254 10 gusting 14 1.7
2020-Feb-26 04:31 262 9 gusting 14 1.7
2020-Feb-26 04:22 261 10 gusting 16 1.7
2020-Feb-26 04:13 257 10 gusting 15 1.7
2020-Feb-26 04:04 256 12 gusting 19 1.7
2020-Feb-26 03:55 252 11 gusting 19 1.7
2020-Feb-26 03:46 259 12 gusting 19 1.7
2020-Feb-26 03:37 258 10 gusting 15 1.7
2020-Feb-26 03:28 254 10 gusting 17 1.7
2020-Feb-26 03:19 249 10 gusting 17 1.7
2020-Feb-26 03:10 259 11 gusting 19 1.7
2020-Feb-26 03:01 257 12 gusting 20 1.7
2020-Feb-26 02:52 260 12 gusting 19 1.7
2020-Feb-26 02:43 263 12 gusting 25 1.7
2020-Feb-26 02:34 252 12 gusting 21 1.7
2020-Feb-26 02:25 248 13 gusting 19 1.7
2020-Feb-26 02:16 250 13 gusting 20 1.7
2020-Feb-26 02:07 252 14 gusting 21 1.7
2020-Feb-26 01:58 244 12 gusting 19 1.7
2020-Feb-26 01:49 237 12 gusting 19 1.7
2020-Feb-26 01:40 240 12 gusting 19 1.7
2020-Feb-26 01:31 234 12 gusting 18 2.2
2020-Feb-26 01:22 242 15 gusting 26 2.2
2020-Feb-26 01:13 243 13 gusting 22 2.2
2020-Feb-26 01:04 243 11 gusting 17 2.2
2020-Feb-26 00:55 244 13 gusting 20 2.8
2020-Feb-26 00:46 250 15 gusting 25 2.8
2020-Feb-26 00:37 248 14 gusting 21 2.8
2020-Feb-26 00:28 249 13 gusting 24 2.8
2020-Feb-26 00:19 244 13 gusting 26 2.8
2020-Feb-26 00:10 247 13 gusting 21 2.8
2020-Feb-26 00:01 249 11 gusting 17 2.8
2020-Feb-25 23:52 248 11 gusting 16 2.8
2020-Feb-25 23:43 252 11 gusting 19 2.8
2020-Feb-25 23:34 246 12 gusting 19 2.8
2020-Feb-25 23:25 248 12 gusting 19 2.8
2020-Feb-25 23:16 253 14 gusting 20 2.8
2020-Feb-25 23:07 249 13 gusting 20 2.8
2020-Feb-25 22:58 256 12 gusting 20 2.8
2020-Feb-25 22:49 252 12 gusting 21 2.8
2020-Feb-25 22:40 252 13 gusting 21 3.3
2020-Feb-25 22:31 243 13 gusting 23 2.8
2020-Feb-25 22:22 243 10 gusting 16 2.8
2020-Feb-25 22:13 245 9 gusting 13 2.8
2020-Feb-25 22:04 250 11 gusting 20 2.8
2020-Feb-25 21:55 260 13 gusting 19 3.3
2020-Feb-25 21:46 256 13 gusting 20 3.3
2020-Feb-25 21:37 255 12 gusting 20 3.3
2020-Feb-25 21:28 254 13 gusting 19 3.3
2020-Feb-25 21:19 248 14 gusting 21 3.3
2020-Feb-25 21:10 249 13 gusting 22 3.3
2020-Feb-25 21:01 253 11 gusting 19 3.3
2020-Feb-25 20:52 250 11 gusting 20 3.3
2020-Feb-25 20:43 257 11 gusting 19 2.8
2020-Feb-25 20:34 248 10 gusting 16 2.8
2020-Feb-25 20:25 256 11 gusting 18 3.3
2020-Feb-25 20:16 249 12 gusting 18 3.3
2020-Feb-25 20:07 257 12 gusting 20 3.3
2020-Feb-25 19:58 249 11 gusting 20 3.3
2020-Feb-25 19:49 255 13 gusting 21 3.3
2020-Feb-25 19:40 255 11 gusting 17 3.3
2020-Feb-25 19:31 254 11 gusting 17 3.9
2020-Feb-25 19:22 253 11 gusting 16 3.9
2020-Feb-25 19:13 258 13 gusting 23 3.9
2020-Feb-25 19:04 256 12 gusting 21 3.9
2020-Feb-25 18:55 263 13 gusting 22 4.4
2020-Feb-25 18:46 268 13 gusting 21 4.4
2020-Feb-25 18:37 255 13 gusting 19 4.4
2020-Feb-25 18:28 248 13 gusting 21 4.4
2020-Feb-25 18:19 253 13 gusting 22 4.4
2020-Feb-25 18:10 253 13 gusting 19 3.9
2020-Feb-25 18:01 250 13 gusting 22 3.9
2020-Feb-25 17:52 248 12 gusting 21 3.9
2020-Feb-25 17:43 251 11 gusting 19 3.9
2020-Feb-25 17:34 264 10 gusting 16 4.4
2020-Feb-25 17:25 268 9 gusting 13 4.4
2020-Feb-25 17:16 266 9 gusting 13 5.0
2020-Feb-25 17:07 264 12 gusting 22 5.6
2020-Feb-25 16:58 263 13 gusting 25 6.7
2020-Feb-25 16:49 259 11 gusting 17 7.2
2020-Feb-25 16:40 250 9 gusting 13 7.8
2020-Feb-25 16:31 249 10 gusting 18 7.8
2020-Feb-25 16:22 251 7 gusting 16 7.2
2020-Feb-25 16:13 250 6 gusting 9 6.7
2020-Feb-25 16:04 260 7 gusting 11 6.7
2020-Feb-25 15:55 264 8 gusting 13 6.7
2020-Feb-25 15:46 258 12 gusting 21 6.1
2020-Feb-25 15:37 258 13 gusting 23 6.1
2020-Feb-25 15:28 262 12 gusting 19 6.1
2020-Feb-25 15:19 262 13 gusting 23 6.7
2020-Feb-25 15:10 271 10 gusting 20 7.2
2020-Feb-25 15:01 259 10 gusting 16 7.8
2020-Feb-25 14:52 260 12 gusting 19 8.3
2020-Feb-25 14:43 254 10 gusting 18 7.8
2020-Feb-25 14:34 256 11 gusting 20 8.3
2020-Feb-25 14:25 263 11 gusting 20 7.8
2020-Feb-25 14:16 250 13 gusting 21 7.8
2020-Feb-25 14:07 249 11 gusting 15 7.8
2020-Feb-25 13:58 258 12 gusting 21 7.8
2020-Feb-25 13:49 266 11 gusting 19 7.2
2020-Feb-25 13:40 266 13 gusting 20 6.7
2020-Feb-25 13:31 261 17 gusting 27 6.7
2020-Feb-25 13:22 253 13 gusting 21 6.7
2020-Feb-25 13:13 253 16 gusting 25 6.1
2020-Feb-25 13:04 262 13 gusting 24 6.7
2020-Feb-25 12:55 272 13 gusting 20 6.7
2020-Feb-25 12:46 241 11 gusting 17 8.9
2020-Feb-25 12:37 243 9 gusting 16 10.0
2020-Feb-25 12:28 241 10 gusting 18 10.0
2020-Feb-25 12:19 248 9 gusting 14 10.0
2020-Feb-25 12:10 247 10 gusting 18 10.0
2020-Feb-25 12:01 249 12 gusting 17 10.0
2020-Feb-25 11:52 246 12 gusting 20 9.4
2020-Feb-25 11:43 250 13 gusting 20 9.4
2020-Feb-25 11:34 254 11 gusting 16 8.3
2020-Feb-25 11:25 255 13 gusting 24 7.2
2020-Feb-25 11:16 246 13 gusting 19 7.8
2020-Feb-25 11:07 252 13 gusting 20 7.8
2020-Feb-25 10:58 255 13 gusting 22 8.3
2020-Feb-25 10:49 258 12 gusting 19 9.4
2020-Feb-25 10:40 254 12 gusting 19 10.0
2020-Feb-25 10:31 253 11 gusting 19 10.0
2020-Feb-25 10:22 252 12 gusting 19 8.9
2020-Feb-25 10:13 252 12 gusting 21 8.3
2020-Feb-25 10:04 247 11 gusting 19 8.3
2020-Feb-25 09:55 248 9 gusting 17 7.8
2020-Feb-25 09:46 255 8 gusting 14 7.8
2020-Feb-25 09:37 250 9 gusting 16 7.8
2020-Feb-25 09:28 255 11 gusting 19 7.8
2020-Feb-25 09:19 254 8 gusting 19 8.3
2020-Feb-25 09:10 248 8 gusting 15 8.9
2020-Feb-25 09:01 254 8 gusting 14 8.3
2020-Feb-25 08:52 248 8 gusting 14 8.9
2020-Feb-25 08:43 256 6 gusting 13 8.9
2020-Feb-25 08:34 242 6 gusting 13 8.9
2020-Feb-25 08:25 250 6 gusting 9 8.3
2020-Feb-25 08:16 259 6 gusting 11 8.3
2020-Feb-25 08:07 251 6 gusting 12 7.8
2020-Feb-25 07:58 245 6 gusting 11 7.2
2020-Feb-25 07:49 249 6 gusting 8 6.7
2020-Feb-25 07:40 247 6 gusting 8 6.7
2020-Feb-25 07:31 256 6 gusting 8 6.1
2020-Feb-25 07:22 261 6 gusting 8 5.6
2020-Feb-25 07:13 259 6 gusting 10 5.6
2020-Feb-25 07:04 266 6 gusting 10 5.6
2020-Feb-25 06:55 264 6 gusting 8 5.6
2020-Feb-25 06:46 272 6 gusting 9 5.6
2020-Feb-25 06:37 269 6 gusting 11 6.1
2020-Feb-25 06:28 273 6 gusting 10 6.1
2020-Feb-25 06:19 270 7 gusting 12 6.1
2020-Feb-25 06:10 265 8 gusting 13 6.1
2020-Feb-25 06:01 264 7 gusting 13 6.1
2020-Feb-25 05:52 264 8 gusting 13 6.1
2020-Feb-25 05:43 270 10 gusting 15 6.1
2020-Feb-25 05:34 283 10 gusting 18 6.7
2020-Feb-25 05:25 274 7 gusting 15 6.7
2020-Feb-25 05:16 270 7 gusting 13 6.7
2020-Feb-25 05:07 273 6 gusting 11 6.7
2020-Feb-25 04:58 269 6 gusting 9 6.7
2020-Feb-25 04:49 270 6 gusting 13 6.7
2020-Feb-25 04:40 265 7 gusting 13 6.7
2020-Feb-25 04:31 263 8 gusting 13 7.2
2020-Feb-25 04:22 266 7 gusting 11 7.2
2020-Feb-25 04:13 270 6 gusting 11 7.2
2020-Feb-25 04:04 267 6 gusting 11 7.2
2020-Feb-25 03:55 262 6 gusting 10 7.2
2020-Feb-25 03:46 267 5 gusting 7 7.2
2020-Feb-25 03:37 268 5 gusting 7 7.2
2020-Feb-25 03:28 273 6 gusting 9 7.2
2020-Feb-25 03:19 278 6 gusting 9 7.2
2020-Feb-25 03:10 278 6 gusting 10 7.2
2020-Feb-25 03:01 286 6 gusting 11 7.2
2020-Feb-25 02:52 274 6 gusting 14 7.2
2020-Feb-25 02:43 276 6 gusting 12 7.2
2020-Feb-25 02:34 279 9 gusting 15 7.8
2020-Feb-25 02:25 283 10 gusting 18 7.8
2020-Feb-25 02:16 286 6 gusting 13 8.3
2020-Feb-25 02:07 282 6 gusting 11 8.3
2020-Feb-25 01:58 276 6 gusting 13 8.3
2020-Feb-25 01:49 269 8 gusting 13 8.9
2020-Feb-25 01:40 270 7 gusting 19 8.9
2020-Feb-25 01:31 271 8 gusting 15 8.9
2020-Feb-25 01:22 266 10 gusting 19 8.9
2020-Feb-25 01:13 257 8 gusting 13 9.4
2020-Feb-25 01:04 244 10 gusting 14 9.4
2020-Feb-25 00:55 243 9 gusting 14 9.4
2020-Feb-25 00:46 244 8 gusting 13 9.4
2020-Feb-25 00:37 239 7 gusting 12 9.4
2020-Feb-25 00:28 230 7 gusting 13 9.4
2020-Feb-25 00:19 229 6 gusting 11 9.4
2020-Feb-25 00:10 231 7 gusting 13 9.4
2020-Feb-25 00:01 225 6 gusting 10 9.4
2020-Feb-24 23:52 230 7 gusting 11 9.4
2020-Feb-24 23:43 229 6 gusting 11 9.4
2020-Feb-24 23:34 233 7 gusting 14 9.4
2020-Feb-24 23:25 228 6 gusting 11 9.4
2020-Feb-24 23:16 235 7 gusting 13 9.4
2020-Feb-24 23:07 239 7 gusting 11 9.4
2020-Feb-24 22:58 233 7 gusting 10 9.4
2020-Feb-24 22:49 239 7 gusting 13 9.4
2020-Feb-24 22:40 235 7 gusting 13 9.4
2020-Feb-24 22:31 236 8 gusting 12 9.4
2020-Feb-24 22:22 237 7 gusting 12 9.4
2020-Feb-24 22:13 235 7 gusting 14 9.4
2020-Feb-24 22:04 233 7 gusting 14 9.4
2020-Feb-24 21:55 232 6 gusting 13 9.4
2020-Feb-24 21:46 233 6 gusting 11 9.4
2020-Feb-24 21:37 239 6 gusting 11 9.4
2020-Feb-24 21:28 237 6 gusting 9 9.4
2020-Feb-24 21:19 225 7 gusting 13 9.4
2020-Feb-24 21:10 228 6 gusting 11 9.4
2020-Feb-24 21:01 226 6 gusting 14 9.4
2020-Feb-24 20:52 231 6 gusting 11 9.4
2020-Feb-24 20:43 226 7 gusting 14 9.4
2020-Feb-24 20:34 228 6 gusting 13 9.4
2020-Feb-24 20:25 233 7 gusting 12 9.4
2020-Feb-24 20:16 234 6 gusting 11 9.4
2020-Feb-24 20:07 235 8 gusting 13 9.4
2020-Feb-24 19:58 232 8 gusting 13 9.4
2020-Feb-24 19:49 226 8 gusting 13 9.4
2020-Feb-24 19:40 230 8 gusting 16 9.4
2020-Feb-24 19:31 233 8 gusting 13 9.4
2020-Feb-24 19:22 240 8 gusting 13 9.4
2020-Feb-24 19:13 233 8 gusting 15 9.4
2020-Feb-24 19:04 228 9 gusting 15 9.4
2020-Feb-24 18:55 220 8 gusting 14 9.4
2020-Feb-24 18:46 233 7 gusting 14 9.4
2020-Feb-24 18:37 235 9 gusting 14 9.4
2020-Feb-24 18:01 239 10 gusting 15 10.0
2020-Feb-24 17:52 236 12 gusting 20 10.6
2020-Feb-24 17:43 239 13 gusting 18 11.1
2020-Feb-24 17:34 240 12 gusting 21 11.1
2020-Feb-24 17:25 248 14 gusting 24 11.1
2020-Feb-24 17:16 241 13 gusting 24 11.7
2020-Feb-24 17:07 241 13 gusting 19 11.7
2020-Feb-24 16:58 236 13 gusting 21 11.7
2020-Feb-24 16:49 234 12 gusting 20 11.7
2020-Feb-24 16:40 232 13 gusting 21 11.7
2020-Feb-24 16:31 236 10 gusting 17 11.7
2020-Feb-24 16:22 230 10 gusting 19 11.7
2020-Feb-24 16:13 231 9 gusting 16 12.2
2020-Feb-24 16:04 233 9 gusting 16 12.2
2020-Feb-24 15:55 233 11 gusting 19 12.2
2020-Feb-24 15:46 230 12 gusting 19 12.2
2020-Feb-24 15:37 236 12 gusting 20 12.2
2020-Feb-24 15:28 235 11 gusting 19 12.2
2020-Feb-24 15:19 242 12 gusting 18 12.2
2020-Feb-24 15:10 244 12 gusting 20 12.2
2020-Feb-24 15:01 243 13 gusting 19 12.2
2020-Feb-24 14:52 247 14 gusting 26 12.2
2020-Feb-24 14:43 243 13 gusting 24 12.2
2020-Feb-24 14:34 239 13 gusting 20 12.8
2020-Feb-24 14:25 239 12 gusting 19 12.8
2020-Feb-24 14:16 237 13 gusting 19 12.8
2020-Feb-24 14:07 238 14 gusting 23 12.8
2020-Feb-24 13:58 240 13 gusting 20 13.3
2020-Feb-24 13:49 247 13 gusting 23 13.3
2020-Feb-24 13:40 239 14 gusting 23 13.3
2020-Feb-24 13:31 238 15 gusting 22 13.3
2020-Feb-24 13:22 238 15 gusting 22 13.3
2020-Feb-24 13:13 244 13 gusting 22 13.3
2020-Feb-24 13:04 236 13 gusting 20 13.3